createdAt,value
2018-02-03T00:01:07.104Z,97674.13
2018-02-03T00:03:37.261Z,97667.14
2018-02-03T00:06:07.382Z,97677.17
2018-02-03T00:08:39.179Z,97669.26
2018-02-03T00:11:09.204Z,97665.62
2018-02-03T00:13:39.169Z,97659.82
2018-02-03T00:16:10.999Z,97657.85
2018-02-03T00:18:40.707Z,97658.16
2018-02-03T00:21:10.605Z,97658.97
2018-02-03T00:23:40.324Z,97656.69
2018-02-03T00:26:10.249Z,97653.27
2018-02-03T00:28:40.576Z,97654.41
2018-02-03T00:31:11.205Z,97650.94
2018-02-03T00:33:41.678Z,97644.73
2018-02-03T00:36:13.406Z,97645.56
2018-02-03T00:38:43.468Z,97651.00
2018-02-03T00:41:13.823Z,97654.17
2018-02-03T00:43:43.777Z,97647.03
2018-02-03T00:46:13.518Z,97642.06
2018-02-03T00:48:46.452Z,97640.16
2018-02-03T00:51:16.508Z,97644.41
2018-02-03T00:53:46.452Z,97645.55
2018-02-03T00:56:17.447Z,97638.77
2018-02-03T00:58:48.361Z,97641.66
2018-02-03T01:01:18.293Z,97649.58
2018-02-03T01:03:48.220Z,97645.70
2018-02-03T01:06:18.221Z,97642.93
2018-02-03T01:08:48.372Z,97645.56
2018-02-03T01:11:18.495Z,97639.88
2018-02-03T01:13:48.471Z,97642.43
2018-02-03T01:16:19.446Z,97636.66
2018-02-03T01:18:50.198Z,97637.49
2018-02-03T01:21:20.098Z,97639.53
2018-02-03T01:23:50.360Z,97636.22
2018-02-03T01:26:20.445Z,97630.92
2018-02-03T01:28:50.668Z,97632.84
2018-02-03T01:31:20.585Z,97632.18
2018-02-03T01:33:50.424Z,97633.47
2018-02-03T01:36:20.649Z,97637.36
2018-02-03T01:38:50.562Z,97634.59
2018-02-03T01:41:20.494Z,97636.83
2018-02-03T01:43:50.679Z,97633.52
2018-02-03T01:46:20.688Z,97634.05
2018-02-03T01:48:51.148Z,97631.96
2018-02-03T01:51:22.462Z,97631.46
2018-02-03T01:53:52.461Z,97633.25
2018-02-03T01:56:22.533Z,97636.69
2018-02-03T01:58:52.532Z,97634.31
2018-02-03T02:01:22.535Z,97629.98
2018-02-03T02:03:52.672Z,97628.53
2018-02-03T02:06:22.088Z,97618.91
2018-02-03T02:08:52.164Z,97613.38
2018-02-03T02:11:22.128Z,97607.11
2018-02-03T02:13:53.377Z,97600.75
2018-02-03T02:16:23.816Z,97594.88
2018-02-03T02:21:28.343Z,97585.37
2018-02-03T02:23:58.402Z,97587.61
2018-02-03T02:26:29.257Z,97579.77
2018-02-03T02:28:59.734Z,97580.59
2018-02-03T02:31:29.836Z,97579.47
2018-02-03T02:33:59.837Z,97571.45
2018-02-03T02:36:29.961Z,97581.16
2018-02-03T02:38:59.917Z,97581.61
2018-02-03T02:41:30.541Z,97576.11
2018-02-03T02:44:00.560Z,97573.65
2018-02-03T02:46:30.481Z,97579.00
2018-02-03T02:49:00.436Z,97575.02
2018-02-03T02:54:09.182Z,97566.34
2018-02-03T02:56:39.510Z,97556.43
2018-02-03T02:59:09.389Z,97553.38
2018-02-03T03:01:40.205Z,97552.23
2018-02-03T03:04:10.166Z,97550.39
2018-02-03T03:06:40.167Z,97549.56
2018-02-03T03:09:10.066Z,97553.20
2018-02-03T03:11:40.053Z,97557.06
2018-02-03T03:14:10.084Z,97545.11
2018-02-03T03:16:39.984Z,97551.45
2018-02-03T03:19:10.175Z,97546.68
2018-02-03T03:21:40.133Z,97549.23
2018-02-03T03:24:10.110Z,97553.52
2018-02-03T03:26:40.047Z,97549.88
2018-02-03T03:29:09.979Z,97552.42
2018-02-03T03:31:40.165Z,97543.77
2018-02-03T03:34:10.062Z,97549.97
2018-02-03T03:36:40.033Z,97547.42
2018-02-03T03:39:09.991Z,97546.60
2018-02-03T03:41:39.925Z,97544.28
2018-02-03T03:44:09.908Z,97543.59
2018-02-03T03:46:39.190Z,97543.27
2018-02-03T03:49:08.788Z,97537.67
2018-02-03T03:51:42.262Z,97539.08
2018-02-03T03:54:12.330Z,97534.39
2018-02-03T03:56:42.361Z,97536.02
2018-02-03T03:59:12.276Z,97544.36
2018-02-03T04:01:42.236Z,97552.61
2018-02-03T04:04:12.175Z,97551.33
2018-02-03T04:06:42.175Z,97550.52
2018-02-03T04:09:12.459Z,97556.31
2018-02-03T04:11:42.369Z,97553.84
2018-02-03T04:14:12.575Z,97559.09
2018-02-03T04:16:42.317Z,97553.70
2018-02-03T04:19:12.245Z,97551.34
2018-02-03T04:21:41.898Z,97547.69
2018-02-03T04:24:11.785Z,97543.05
2018-02-03T04:26:41.761Z,97534.40
2018-02-03T04:29:11.104Z,97531.87
2018-02-03T04:31:41.104Z,97526.38
2018-02-03T04:34:11.038Z,97524.08
2018-02-03T04:36:41.134Z,97515.03
2018-02-03T04:39:10.872Z,97511.58
2018-02-03T04:41:40.865Z,97515.83
2018-02-03T04:44:10.820Z,97512.78
2018-02-03T04:46:44.818Z,97512.78
2018-02-03T04:49:14.762Z,97502.84
2018-02-03T04:51:44.869Z,97495.81
2018-02-03T04:54:15.809Z,97501.02
2018-02-03T04:56:47.653Z,97499.66
2018-02-03T04:59:17.703Z,97498.86
2018-02-03T05:01:47.777Z,97500.80
2018-02-03T05:04:19.523Z,97499.67
2018-02-03T05:06:49.201Z,97492.56
2018-02-03T05:09:19.115Z,97487.88
2018-02-03T05:11:49.037Z,97482.88
2018-02-03T05:14:19.808Z,97489.61
2018-02-03T05:16:49.804Z,97486.94
2018-02-03T05:19:34.994Z,97487.84
2018-02-03T05:24:49.951Z,97490.17
2018-02-03T05:27:22.737Z,97492.13
2018-02-03T05:29:57.863Z,97488.67
2018-02-03T05:32:31.033Z,97492.03
2018-02-03T05:35:04.174Z,97501.22
2018-02-03T05:37:36.412Z,97504.16
2018-02-03T05:40:05.998Z,97501.33
2018-02-03T05:42:35.779Z,97496.95
2018-02-03T05:45:08.870Z,97496.63
2018-02-03T05:47:38.709Z,97499.09
2018-02-03T05:50:08.458Z,97499.39
2018-02-03T05:52:39.040Z,97498.98
2018-02-03T05:55:08.933Z,97503.55
2018-02-03T05:57:38.865Z,97494.39
2018-02-03T06:00:21.728Z,97487.48
2018-02-03T06:02:51.723Z,97490.02
2018-02-03T06:05:44.124Z,97491.76
2018-02-03T06:08:14.102Z,97484.91
2018-02-03T06:13:44.279Z,97486.54
2018-02-03T06:16:14.215Z,97488.14
2018-02-03T06:18:44.172Z,97484.03
2018-02-03T06:21:13.854Z,97486.09
2018-02-03T06:23:47.510Z,97485.79
2018-02-03T06:26:19.095Z,97482.98
2018-02-03T06:28:49.032Z,97477.79
2018-02-03T06:31:19.121Z,97481.94
2018-02-03T06:33:49.446Z,97479.81
2018-02-03T06:36:20.132Z,97469.53
2018-02-03T06:38:50.821Z,97468.36
2018-02-03T06:41:20.614Z,97462.83
2018-02-03T06:43:52.456Z,97458.17
2018-02-03T06:46:22.448Z,97458.00
2018-02-03T06:57:50.846Z,97444.16
2018-02-03T07:00:22.551Z,97442.76
2018-02-03T07:11:17.586Z,97447.50
2018-02-03T07:13:48.392Z,97443.07
2018-02-03T07:16:20.621Z,97445.50
2018-02-03T07:18:53.164Z,97443.75
2018-02-03T07:21:23.114Z,97452.81
2018-02-03T07:31:06.673Z,97474.75
2018-02-03T07:36:31.184Z,97484.36
2018-02-03T07:39:01.252Z,97481.52
2018-02-03T07:41:44.672Z,97487.67
2018-02-03T07:49:53.443Z,97485.69
2018-02-03T07:52:31.253Z,97487.38
2018-02-03T07:55:03.921Z,97482.66
2018-02-03T07:57:35.544Z,97475.12
2018-02-03T08:00:06.035Z,97483.11
2018-02-03T08:02:39.934Z,97476.85
2018-02-03T08:05:18.242Z,97483.42
2018-02-03T08:07:57.255Z,97467.80
2018-02-03T08:10:30.856Z,97468.77
2018-02-03T08:13:01.728Z,97468.91
2018-02-03T08:24:21.087Z,97454.24
2018-02-03T08:27:25.472Z,97446.84
2018-02-03T08:38:10.203Z,97414.50
2018-02-03T08:53:47.354Z,97398.70
2018-02-03T09:21:28.769Z,97416.77
2018-02-03T09:32:39.756Z,97420.79
2018-02-03T09:35:24.880Z,97426.30
2018-02-03T09:43:52.931Z,97426.23
2018-02-03T09:46:23.182Z,97422.80
2018-02-03T09:48:55.518Z,97421.20
2018-02-03T09:54:28.586Z,97409.73
2018-02-03T09:57:08.402Z,97407.03
2018-02-03T09:59:39.967Z,97395.13
2018-02-03T10:02:25.867Z,97400.27
2018-02-03T10:07:31.856Z,97394.53
2018-02-03T10:10:21.921Z,97396.28
2018-02-03T10:13:09.069Z,97389.54
2018-02-03T10:18:37.776Z,97385.30
2018-02-03T10:23:51.929Z,97376.80
2018-02-03T10:26:37.967Z,97385.13
2018-02-03T10:29:08.811Z,97375.12
2018-02-03T10:31:40.267Z,97372.17
2018-02-03T10:34:38.349Z,97369.91
2018-02-03T10:48:40.941Z,97348.92
2018-02-03T10:53:58.334Z,97350.21
2018-02-03T10:59:25.704Z,97348.98
2018-02-03T11:05:05.180Z,97353.31
2018-02-03T11:07:37.054Z,97361.67
2018-02-03T11:12:43.345Z,97369.41
2018-02-03T11:15:24.699Z,97368.16
2018-02-03T11:17:54.632Z,97372.48
2018-02-03T11:20:24.883Z,97375.48
2018-02-03T11:22:58.182Z,97360.94
2018-02-03T11:25:29.077Z,97367.45
2018-02-03T11:28:02.481Z,97369.64
2018-02-03T11:53:59.509Z,97357.77
2018-02-03T12:12:20.609Z,97348.89
2018-02-03T12:17:36.222Z,97332.37
2018-02-03T12:20:10.402Z,97336.61
2018-02-03T12:22:40.009Z,97330.55
2018-02-03T12:25:22.906Z,97322.84
2018-02-03T12:27:56.712Z,97308.38
2018-02-03T12:30:26.827Z,97310.31
2018-02-03T12:32:56.890Z,97312.12
2018-02-03T12:41:37.873Z,97298.73
2018-02-03T12:53:14.110Z,97292.78
2018-02-03T12:58:40.556Z,97296.34
2018-02-03T13:01:27.063Z,97291.06
2018-02-03T13:03:59.126Z,97295.23
2018-02-03T13:06:29.747Z,97283.61
2018-02-03T13:09:08.584Z,97285.20
2018-02-03T13:14:29.401Z,97276.27
2018-02-03T13:22:37.049Z,97271.33
2018-02-03T13:27:42.048Z,97270.63
2018-02-03T13:30:20.229Z,97266.90
2018-02-03T13:39:13.947Z,97275.05
2018-02-03T13:44:37.707Z,97276.17
2018-02-03T14:01:37.980Z,97268.21
2018-02-03T14:09:32.979Z,97261.84
2018-02-03T14:14:37.169Z,97258.17
2018-02-03T14:17:07.366Z,97256.52
2018-02-03T14:19:38.927Z,97256.70
2018-02-03T14:22:09.314Z,97254.55
2018-02-03T14:24:45.140Z,97258.30
2018-02-03T14:27:14.810Z,97267.83
2018-02-03T14:29:44.634Z,97267.64
2018-02-03T14:32:17.006Z,97266.85
2018-02-03T14:34:48.247Z,97263.84
2018-02-03T14:37:18.723Z,97259.78
2018-02-03T14:39:48.890Z,97264.23
2018-02-03T14:42:18.949Z,97259.74
2018-02-03T14:44:48.797Z,97268.66
2018-02-03T14:47:19.702Z,97266.42
2018-02-03T14:49:49.519Z,97266.77
2018-02-03T14:52:19.379Z,97268.28
2018-02-03T14:54:49.263Z,97269.03
2018-02-03T14:57:19.076Z,97264.34
2018-02-03T14:59:48.890Z,97271.34
2018-02-03T15:02:19.045Z,97276.72
2018-02-03T15:04:49.018Z,97272.63
2018-02-03T15:07:18.821Z,97279.45
2018-02-03T15:09:48.635Z,97276.25
2018-02-03T15:12:18.529Z,97279.36
2018-02-03T15:14:48.990Z,97277.28
2018-02-03T15:17:18.855Z,97274.84
2018-02-03T15:19:48.700Z,97282.59
2018-02-03T15:22:19.155Z,97278.16
2018-02-03T15:24:49.826Z,97282.86
2018-02-03T15:27:19.951Z,97286.20
2018-02-03T15:29:50.855Z,97283.65
2018-02-03T15:32:20.833Z,97283.43
2018-02-03T15:34:50.667Z,97289.45
2018-02-03T15:37:20.208Z,97289.06
2018-02-03T15:39:50.121Z,97296.23
2018-02-03T15:42:19.948Z,97298.79
2018-02-03T15:44:50.234Z,97305.08
2018-02-03T15:47:20.060Z,97304.05
2018-02-03T15:49:49.897Z,97304.94
2018-02-03T15:52:19.676Z,97306.59
2018-02-03T15:54:49.585Z,97304.67
2018-02-03T15:57:19.204Z,97303.59
2018-02-03T15:59:49.061Z,97306.27
2018-02-03T16:02:18.621Z,97317.83
2018-02-03T16:04:48.442Z,97311.47
2018-02-03T16:07:18.347Z,97315.38
2018-02-03T16:09:48.148Z,97316.19
2018-02-03T16:12:17.717Z,97327.94
2018-02-03T16:14:47.095Z,97327.02
2018-02-03T16:17:16.896Z,97335.25
2018-02-03T16:19:46.688Z,97333.94
2018-02-03T16:22:16.618Z,97336.53
2018-02-03T16:24:46.469Z,97339.13
2018-02-03T16:27:16.775Z,97336.41
2018-02-03T16:29:46.373Z,97339.42
2018-02-03T16:32:16.392Z,97346.98
2018-02-03T16:34:46.280Z,97350.81
2018-02-03T16:37:27.299Z,97348.89
2018-02-03T16:40:03.936Z,97344.92
2018-02-03T16:42:36.403Z,97350.05
2018-02-03T16:45:06.510Z,97351.45
2018-02-03T16:47:36.375Z,97348.67
2018-02-03T16:50:06.687Z,97358.20
2018-02-03T16:52:36.653Z,97360.25
2018-02-03T16:55:08.122Z,97361.23
2018-02-03T16:57:37.910Z,97364.98
2018-02-03T17:00:09.376Z,97363.00
2018-02-03T17:02:39.274Z,97372.36
2018-02-03T17:05:09.888Z,97373.29
2018-02-03T17:07:39.804Z,97379.02
2018-02-03T17:10:19.485Z,97373.91
2018-02-03T17:13:05.517Z,97380.45
2018-02-03T17:15:37.789Z,97381.20
2018-02-03T17:18:08.136Z,97381.48
2018-02-03T17:20:42.238Z,97381.02
2018-02-03T17:23:12.842Z,97379.69
2018-02-03T17:25:42.768Z,97388.05
2018-02-03T17:28:13.291Z,97386.83
2018-02-03T17:30:43.251Z,97392.61
2018-02-03T17:33:13.088Z,97389.23
2018-02-03T17:35:43.015Z,97394.61
2018-02-03T17:38:18.395Z,97394.51
2018-02-03T17:40:48.379Z,97397.92
2018-02-03T17:43:18.325Z,97402.10
2018-02-03T17:45:53.240Z,97405.16
2018-02-03T17:48:24.682Z,97417.48
2018-02-03T17:50:54.483Z,97417.32
2018-02-03T17:53:33.263Z,97412.52
2018-02-03T17:56:08.686Z,97417.27
2018-02-03T17:58:38.564Z,97420.33
2018-02-03T18:01:08.624Z,97414.88
2018-02-03T18:03:39.062Z,97418.52
2018-02-03T18:06:08.989Z,97422.66
2018-02-03T18:08:38.678Z,97419.89
2018-02-03T18:11:08.406Z,97427.52
2018-02-03T18:13:39.156Z,97425.88
2018-02-03T18:16:10.736Z,97429.31
2018-02-03T18:18:40.752Z,97420.67
2018-02-03T18:21:10.658Z,97424.20
2018-02-03T18:23:54.102Z,97426.13
2018-02-03T18:26:25.763Z,97427.77
2018-02-03T18:28:55.882Z,97426.00
2018-02-03T18:31:27.179Z,97430.20
2018-02-03T18:33:57.407Z,97437.40
2018-02-03T18:36:26.714Z,97433.68
2018-02-03T18:38:56.355Z,97433.41
2018-02-03T18:41:26.304Z,97436.91
2018-02-03T18:43:55.834Z,97439.73
2018-02-03T18:46:25.929Z,97443.77
2018-02-03T18:48:55.599Z,97443.62
2018-02-03T18:51:25.682Z,97445.34
2018-02-03T18:53:55.628Z,97453.38
2018-02-03T18:56:25.557Z,97462.25
2018-02-03T18:58:55.422Z,97461.70
2018-02-03T19:01:26.374Z,97463.25
2018-02-03T19:03:56.349Z,97464.31
2018-02-03T19:06:26.280Z,97467.53
2018-02-03T19:08:56.639Z,97465.86
2018-02-03T19:11:26.477Z,97466.66
2018-02-03T19:13:56.000Z,97461.03
2018-02-03T19:16:26.642Z,97464.15
2018-02-03T19:18:56.237Z,97461.58
2018-02-03T19:21:26.771Z,97461.41
2018-02-03T19:23:56.658Z,97460.59
2018-02-03T19:26:26.985Z,97461.34
2018-02-03T19:28:56.916Z,97467.75
2018-02-03T19:31:26.810Z,97473.11
2018-02-03T19:39:08.875Z,97492.05
2018-02-03T19:41:41.696Z,97487.39
2018-02-03T19:44:11.590Z,97494.47
2018-02-03T19:46:41.452Z,97499.09
2018-02-03T19:49:11.510Z,97506.75
2018-02-03T19:51:41.444Z,97503.69
2018-02-03T19:54:11.583Z,97500.83
2018-02-03T19:56:41.574Z,97503.21
2018-02-03T19:59:11.507Z,97506.55
2018-02-03T20:01:41.414Z,97507.80
2018-02-03T20:04:11.564Z,97505.12
2018-02-03T20:06:41.471Z,97505.52
2018-02-03T20:09:11.749Z,97513.48
2018-02-03T20:11:41.653Z,97516.55
2018-02-03T20:14:11.543Z,97515.70
2018-02-03T20:16:41.502Z,97514.78
2018-02-03T20:19:11.480Z,97523.05
2018-02-03T20:21:41.342Z,97523.35
2018-02-03T20:24:11.217Z,97523.05
2018-02-03T20:26:41.052Z,97524.84
2018-02-03T20:29:11.086Z,97530.56
2018-02-03T20:31:41.009Z,97537.81
2018-02-03T20:34:10.854Z,97545.47
2018-02-03T20:36:40.875Z,97542.50
2018-02-03T20:39:10.789Z,97543.83
2018-02-03T20:41:40.106Z,97543.94
2018-02-03T20:44:09.954Z,97543.77
2018-02-03T20:46:39.775Z,97543.45
2018-02-03T20:49:09.676Z,97547.37
2018-02-03T20:51:39.474Z,97547.06
2018-02-03T20:54:09.287Z,97556.76
2018-02-03T20:56:38.959Z,97557.57
2018-02-03T20:59:08.830Z,97553.70
2018-02-03T21:01:38.660Z,97558.49
2018-02-03T21:04:08.472Z,97556.66
2018-02-03T21:06:38.287Z,97563.97
2018-02-03T21:09:08.105Z,97566.11
2018-02-03T21:11:38.011Z,97563.86
2018-02-03T21:14:07.869Z,97558.92
2018-02-03T21:16:37.682Z,97558.81
2018-02-03T21:19:07.508Z,97560.86
2018-02-03T21:21:37.338Z,97570.45
2018-02-03T21:24:07.180Z,97567.91
2018-02-03T21:26:37.073Z,97569.31
2018-02-03T21:29:06.905Z,97572.55
2018-02-03T21:31:36.767Z,97573.47
2018-02-03T21:34:06.597Z,97575.97
2018-02-03T21:36:36.469Z,97570.09
2018-02-03T21:39:06.004Z,97576.97
2018-02-03T21:41:35.810Z,97572.88
2018-02-03T21:44:05.621Z,97580.84
2018-02-03T21:46:35.433Z,97576.75
2018-02-03T21:49:05.013Z,97574.64
2018-02-03T21:51:35.106Z,97573.59
2018-02-03T21:54:05.327Z,97581.62
2018-02-03T21:56:35.134Z,97577.68
2018-02-03T21:59:04.990Z,97589.53
2018-02-03T22:01:34.935Z,97592.44
2018-02-03T22:04:04.830Z,97592.41
2018-02-03T22:06:34.941Z,97592.41
2018-02-03T22:09:04.195Z,97599.48
2018-02-03T22:11:34.065Z,97602.77
2018-02-03T22:14:03.958Z,97604.07
2018-02-03T22:16:33.766Z,97596.89
2018-02-03T22:19:03.718Z,97603.83
2018-02-03T22:21:33.609Z,97601.55
2018-02-03T22:24:03.495Z,97600.19
2018-02-03T22:26:33.569Z,97597.12
2018-02-03T22:29:03.466Z,97605.63
2018-02-03T22:31:33.343Z,97603.30
2018-02-03T22:34:03.299Z,97605.63
2018-02-03T22:36:33.116Z,97602.08
2018-02-03T22:39:02.961Z,97604.73
2018-02-03T22:41:32.778Z,97601.55
2018-02-03T22:44:02.599Z,97605.47
2018-02-03T22:46:32.729Z,97601.70
2018-02-03T22:49:02.625Z,97604.17
2018-02-03T22:51:33.545Z,97600.42
2018-02-03T22:54:03.370Z,97604.80
2018-02-03T22:56:33.082Z,97607.20
2018-02-03T22:59:02.709Z,97602.34
2018-02-03T23:01:33.226Z,97608.77
2018-02-03T23:04:03.066Z,97613.92
2018-02-03T23:06:33.144Z,97616.16
2018-02-03T23:09:02.961Z,97618.03
2018-02-03T23:11:32.836Z,97623.50
2018-02-03T23:14:03.269Z,97625.28
2018-02-03T23:16:33.847Z,97628.98
2018-02-03T23:19:04.113Z,97627.91
2018-02-03T23:21:35.105Z,97633.38
2018-02-03T23:31:56.962Z,97636.73
2018-02-03T23:37:02.086Z,97641.48
2018-02-03T23:39:35.909Z,97643.22
2018-02-03T23:42:07.065Z,97646.28
2018-02-03T23:44:37.361Z,97656.58
2018-02-03T23:47:09.624Z,97661.77
2018-02-03T23:49:39.679Z,97643.63
2018-02-03T23:52:16.560Z,97666.55
2018-02-03T23:54:48.410Z,97666.61
2018-02-03T23:57:22.985Z,97662.52
2018-02-03T23:59:58.762Z,97669.53
